Lavras, Brazil
Current Conditions -  °F | °C
As of 7:00 AM on Saturday 25 Oct 2014 (Local Time) from SBTE Reporting Station
Scattered Clouds Scattered Clouds  
Wind Chill: 79°   Ceiling: Unl
Heat Index: 82°   Visibility: 6mi
Dew Point: 72°   Wind: 3mph
Humidity: 78%   Direction: 40°NE
Pressure: 29.85"   Gusts: NA
Location:  5.17°S, 43.43°W
Report Text: SBTE 251000Z 04003KT 9999 SCT015 26/22 Q1011
Loading
Personal Weather Stations






























Interactive Weather Map
Tropical Storm Tracking
New forecast layout! Learn more

10-Day Weather Forecast

Advertisements
Track Severe Weather on mobile